Tiempo atmosférico en la estación meteorológica de Cáseda, Navarra (440 m.)

Fecha
DESCASC
Temp. máxima en grados centígrados (hora)
DESCASC
Temp. mínima en grados centígrados (hora)
DESCASC
Temp. media en grados centígrados
DESCASC
Racha de viento máxima en m/sg (hora)
DESCASC
Velocidad máxima media en intervalos de 10 minutos(hora)
DESCASC
Precipitaciones diarias en mm
DESCASC
Precipitaciones de 00:00 a 06:00 en mm
DESCASC
Precipitaciones de 06:00 a 12:00 en mm
DESCASC
Precipitaciones de 12:00 a 18:00 en mm
DESCASC
Precipitaciones de 18:00 a 24:00 en mm
DESCASC
22-10-2017 14.8 (14:40) 9.5 (08:40) 12.2 10.56 (12:50) 5 (12:20) 0 0 0 0 0
21-10-2017 16.8 (13:30) 9.8 (07:50) 13.3 10 (16:00) 5.28 (18:00) 0 0 0 0 0
20-10-2017 19.9 (17:30) 8.2 (05:50) 14 3.33 (20:10) 2.22 (00:40) 0 0 0 0 0
19-10-2017 19 (16:00) 10.7 (00:00) 14.8 6.11 (16:20) 3.89 (18:10) 1.6 1.6 0 0 0
18-10-2017 18.7 (14:10) 11.8 (00:00) 15.3 13.61 (01:10) 7.78 (01:20) 20.4 0.6 1.8 5.6 12.4
17-10-2017 24.3 (14:30) 9.4 (00:00) 16.8 11.94 (15:10) 7.22 (15:10) 0 0 0 0 0
16-10-2017 26.5 (15:10) 12.1 (00:00) 19.3 8.61 (15:30) 5.56 (15:30) 0 0 0 0 0
15-10-2017 25.8 (16:00) 11.6 (00:00) 18.7 9.72 (19:00) 6.67 (19:00) 0 0 0 0 0
14-10-2017 26.7 (15:50) 10.1 (00:00) 18.4 8.89 (14:30) 5.83 (15:10) 0 0 0 0 0
13-10-2017 26.9 (17:10) 10.4 (00:00) 18.6 4.17 (20:00) 3.06 (19:50) 0 0 0 0 0
12-10-2017 27 (16:50) 8 (00:00) 17.5 5.28 (19:10) 3.61 (19:10) 0 0 0 0 0
11-10-2017 26.2 (16:30) 7.6 (00:00) 16.9 4.17 (16:00) 2.78 (19:20) 0 0 0 0 0
10-10-2017 25.2 (16:40) 6.7 (00:00) 16 4.17 (20:10) 2.5 (00:50) 0 0 0 0 0
09-10-2017 25.7 (16:40) 7.1 (00:00) 16.4 6.11 (16:50) 3.61 (18:10) 0 0 0 0 0
08-10-2017 25.1 (16:00) 6.2 (00:00) 15.7 10 (20:40) 5.28 (20:40) 0 0 0 0 0
07-10-2017 23.5 (17:30) 8 (00:00) 15.8 9.44 (03:10) 4.72 (03:10) 0 0 0 0 0
06-10-2017 21.3 (15:20) 11.5 (00:00) 16.4 13.61 (17:40) 8.33 (16:10) 0 0 0 0 0
05-10-2017 26.3 (15:00) 11.4 (00:00) 18.8 12.5 (23:20) 6.67 (23:00) 0 0 0 0 0
04-10-2017 26.2 (15:20) 11.9 (00:00) 19.1 5.28 (15:10) 4.17 (20:00) 0 0 0 0 0
03-10-2017 25.1 (14:30) 12.1 (00:00) 18.6 12.5 (15:30) 6.11 (15:10) 0 0 0 0 0
02-10-2017 24.7 (16:50) 17.1 (00:00) 20.9 10.83 (17:30) 5.28 (12:30) 0 0 0 0 0
01-10-2017 20.8 (13:50) 13.2 (00:00) 17 7.78 (16:30) 5 (16:50) 0.2 0 0.2 0 0
30-09-2017 19.6 (17:30) 14.3 (00:00) 17 7.5 (21:30) 3.33 (21:30) 2.2 0 2 0.2 0
29-09-2017 27.2 (17:10) 12.3 (00:00) 19.8 4.72 (13:50) 2.78 (15:10) 0 0 0 0 0
28-09-2017 27.7 (16:50) 12 (00:00) 19.9 6.39 (17:20) 4.72 (20:20) 0 0 0 0 0
27-09-2017 26.1 (16:30) 9 (00:00) 17.6 7.78 (15:30) 5 (15:30) 0 0 0 0 0
26-09-2017 23.7 (16:40) 12.7 (00:00) 18.2 7.5 (00:40) 3.89 (01:30) 0 0 0 0 0
25-09-2017 22.1 (15:30) 15.3 (00:00) 18.7 11.67 (17:30) 7.22 (17:30) 0 0 0 0 0
24-09-2017 27.7 (17:30) 11.6 (00:00) 19.7 3.89 (20:20) 2.5 (19:50) 0 0 0 0 0
23-09-2017 24.9 (17:50) 10 (00:00) 17.4 5 (20:20) 3.89 (20:20) 0 0 0 0 0

Gráficas

Temp. máximas Temp. mínimas Temp. medias Precipitaciones Rachas de viento máximas Velocidades máximas media en intervalos de 10 minutos

Datos horarios

Fecha y hora oficial Temperatura (ºC) Velocidad del viento (km/h) Dirección del viento Racha (km/h) Dirección de racha Precipitación (mm) Presión (hPa) Tendencia (hPa) Humedad (%)
2017-10-22 23:00:00 10.8 10 Norte 21 Norte 0 -- -- 81
2017-10-22 22:00:00 11.2 10 Noroeste 21 Noroeste 0 -- -- 79
2017-10-22 21:00:00 11.4 9 Noroeste 24 Noroeste 0 -- -- 77
2017-10-22 20:00:00 12.1 13 Noroeste 24 Noroeste 0 -- -- 73
2017-10-22 19:00:00 12.2 15 Noroeste 31 Noroeste 0 -- -- 71
2017-10-22 18:00:00 12.9 13 Noroeste 27 Noroeste 0 -- -- 74
2017-10-22 17:00:00 13.8 17 Noroeste 28 Noroeste 0 -- -- 70
2017-10-22 16:00:00 14.4 11 Norte 32 Noroeste 0 -- -- 67
2017-10-22 15:00:00 14.8 15 Noroeste 30 Noroeste 0 -- -- 64
2017-10-22 14:00:00 14.1 14 Norte 30 Noroeste 0 -- -- 67
2017-10-22 13:00:00 14.2 15 Noroeste 38 Norte 0 -- -- 67
2017-10-22 12:00:00 13.5 14 Noroeste 23 Norte 0 -- -- 69
2017-10-22 11:00:00 12.5 11 Noroeste 23 Noroeste 0 -- -- 77
2017-10-22 10:00:00 11.2 6 Norte 15 Noroeste 0 -- -- 81
2017-10-22 09:00:00 9.6 4 Sur 13 Norte 0 -- -- 84
2017-10-22 08:00:00 9.9 3 Oeste 14 Oeste 0 -- -- 80
2017-10-22 07:00:00 9.9 4 Noroeste 15 Noroeste 0 -- -- 79
2017-10-22 06:00:00 10.3 8 Oeste 23 Oeste 0 -- -- 77
2017-10-22 05:00:00 10.9 11 Oeste 26 Oeste 0 -- -- 73
2017-10-22 04:00:00 11.2 9 Oeste 18 Oeste 0 -- -- 76
2017-10-22 03:00:00 11.2 10 Oeste 17 Oeste 0 -- -- 76
2017-10-22 02:00:00 11.4 4 Noroeste 15 Noroeste 0 -- -- 76
2017-10-22 01:00:00 11.4 11 Oeste 17 Oeste 0 -- -- 75
2017-10-22 00:00:00 11.8 5 Norte 11 Norte 0 -- -- 72
2017-10-21 23:00:00 12.3 4 Noroeste 15 Noroeste 0 -- -- 69
2017-10-21 22:00:00 12.6 3 Nordeste 17 Este 0 -- -- 67
2017-10-21 21:00:00 12.3 4 Este 17 Norte 0 -- -- 71
2017-10-21 20:00:00 13 11 Norte 28 Norte 0 -- -- 67
2017-10-21 19:00:00 13.9 13 Nordeste 35 Nordeste 0 -- -- 66
2017-10-21 18:00:00 14.7 19 Nordeste 34 Norte 0 -- -- 68
2017-10-21 17:00:00 14.9 14 Nordeste 28 Este 0 -- -- 69
2017-10-21 16:00:00 14.1 17 Norte 36 Nordeste 0 -- -- 71
2017-10-21 15:00:00 13.9 6 Este 18 Norte 0 -- -- 82
2017-10-21 14:00:00 15.7 10 Nordeste 23 Nordeste 0 -- -- 76
2017-10-21 13:00:00 16.3 9 Nordeste 18 Nordeste 0 -- -- 79
2017-10-21 12:00:00 15.1 3 Nordeste 8 Sur 0 -- -- 83
2017-10-21 11:00:00 13 3 Sur 6 Sudoeste 0 -- -- 90
2017-10-21 10:00:00 11.2 3 Norte 4 Este 0 -- -- 95
2017-10-21 09:00:00 10.2 3 Noroeste 7 Sudeste 0 -- -- 95
2017-10-21 08:00:00 9.8 3 Sur 8 Sudoeste 0 -- -- 94
2017-10-21 07:00:00 10.1 2 Sudoeste 8 Sudoeste 0 -- -- 93
2017-10-21 06:00:00 10.9 4 Nordeste 13 Sur 0 -- -- 91
2017-10-21 05:00:00 11.8 4 Sudeste 8 Sur 0 -- -- 91
2017-10-21 04:00:00 10.8 4 Sudoeste 8 Sur 0 -- -- 94
2017-10-21 03:00:00 10.6 3 Este 8 Sur 0 -- -- 92
2017-10-21 02:00:00 11.3 4 Sur 8 Sudoeste 0 -- -- 91
2017-10-21 01:00:00 11.6 3 Oeste 10 Sudeste 0 -- -- 89
2017-10-21 00:00:00 12.5 4 Sudoeste 7 Sur 0 -- -- 87
2017-10-20 23:00:00 13 3 Sudoeste 6 Sudoeste 0 -- -- 86
2017-10-20 22:00:00 13.8 0 Calma 7 Sudoeste 0 -- -- 84
2017-10-20 21:00:00 14.4 4 Este 12 Sudoeste 0 -- -- 83
2017-10-20 20:00:00 15.6 3 Sudoeste 8 Sur 0 -- -- 77
2017-10-20 19:00:00 17.5 5 Sur 10 Sudoeste 0 -- -- 71
2017-10-20 18:00:00 19.4 0 Calma 5 Norte 0 -- -- 65
2017-10-20 17:00:00 19.7 3 Nordeste 6 Norte 0 -- -- 63
2017-10-20 16:00:00 19.2 3 Nordeste 9 Nordeste 0 -- -- 65
2017-10-20 15:00:00 18.2 6 Nordeste 10 Nordeste 0 -- -- 69
2017-10-20 14:00:00 15.1 3 Norte 8 Noroeste 0 -- -- 78
2017-10-20 13:00:00 13 2 Norte 6 Noroeste 0 -- -- 84
2017-10-20 12:00:00 11.4 3 Este 7 Nordeste 0 -- -- 90
2017-10-20 11:00:00 10.7 3 Sur 6 Sudeste 0 -- -- 93
2017-10-20 10:00:00 9.8 3 Sudeste 7 Sudeste 0 -- -- 96
2017-10-20 09:00:00 8.8 2 Norte 5 Este 0 -- -- 95
2017-10-20 08:00:00 8.6 0 Calma 6 Sur 0 -- -- 95
2017-10-20 07:00:00 8.8 0 Calma 4 Sudeste 0 -- -- 95
2017-10-20 06:00:00 8.3 2 Sudeste 4 Sudeste 0 -- -- 95
2017-10-20 05:00:00 8.7 0 Calma 6 Sudeste 0 -- -- 93
2017-10-20 04:00:00 8.9 0 Calma 9 Sur 0 -- -- 93
2017-10-20 03:00:00 9 5 Oeste 9 Sudeste 0 -- -- 91
2017-10-20 02:00:00 9.4 5 Sudeste 10 Sudeste 0 -- -- 91
2017-10-20 01:00:00 9.8 3 Este 11 Sudoeste 0 -- -- 88
2017-10-20 00:00:00 10.7 3 Nordeste 9 Oeste 0 -- -- 84
2017-10-19 23:00:00 11.9 3 Sudoeste 7 Sur 0 -- -- 79
2017-10-19 22:00:00 12.2 4 Sur 11 Sudoeste 0 -- -- 79
2017-10-19 21:00:00 13 3 Sudoeste 8 Oeste 0 -- -- 76
2017-10-19 20:00:00 13 8 Sudoeste 14 Sudoeste 0 -- -- 78
2017-10-19 19:00:00 15.7 8 Sudoeste 19 Oeste 0 -- -- 69
2017-10-19 18:00:00 17.4 13 Oeste 20 Oeste 0 -- -- 61
2017-10-19 17:00:00 18.3 9 Oeste 22 Noroeste 0 -- -- 61
2017-10-19 16:00:00 19 8 Oeste 20 Sur 0 -- -- 60
2017-10-19 15:00:00 18.3 3 Norte 9 Este 0 -- -- 62
2017-10-19 14:00:00 16.6 3 Nordeste 9 Este 0 -- -- 72
2017-10-19 13:00:00 15.6 4 Nordeste 13 Nordeste 0 -- -- 80
2017-10-19 12:00:00 13.9 5 Este 8 Este 0 -- -- 89
2017-10-19 11:00:00 12.5 0 Calma 5 Nordeste 0 -- -- 94
2017-10-19 10:00:00 12.1 3 Sudoeste 5 Sur 0 -- -- 95
2017-10-19 09:00:00 11.4 4 Sudoeste 8 Oeste 0 -- -- 95
2017-10-19 08:00:00 11.5 5 Oeste 7 Oeste 0 -- -- 96
2017-10-19 07:00:00 11.5 2 Sudoeste 6 Sudoeste 0 -- -- 96
2017-10-19 06:00:00 11.5 4 Oeste 6 Oeste 0.2 -- -- 96
2017-10-19 05:00:00 11.7 0 Calma 4 Sudeste 0.8 -- -- 96
2017-10-19 04:00:00 11.7 2 Noroeste 6 Sur 0.2 -- -- 95
2017-10-19 03:00:00 11.6 6 Sudoeste 8 Sur 0 -- -- 95
2017-10-19 02:00:00 11.8 2 Este 4 Sur 0 -- -- 95
2017-10-19 01:00:00 11.7 4 Sur 8 Sur 0.4 -- -- 95
2017-10-19 00:00:00 11.8 5 Sudeste 10 Sudeste 1 -- -- 94
2017-10-18 23:00:00 12.1 3 Sur 5 Sudoeste 1.6 -- -- 94
2017-10-18 22:00:00 12.4 3 Sudeste 5 Sudeste 4.4 -- -- 95
2017-10-18 21:00:00 12.6 4 Nordeste 9 Este 3.4 -- -- 95
2017-10-18 20:00:00 13.3 4 Nordeste 5 Nordeste 0.8 -- -- 94
2017-10-18 19:00:00 13.4 2 Nordeste 6 Sudoeste 1.2 -- -- 93
2017-10-18 18:00:00 13.4 3 Norte 25 Sur 1.8 -- -- 92
2017-10-18 17:00:00 13.9 17 Sur 25 Sur 3 -- -- 90
2017-10-18 16:00:00 15.7 12 Sur 27 Sur 0.6 -- -- 85
2017-10-18 15:00:00 17.8 17 Sur 43 Sur 0 -- -- 73
2017-10-18 14:00:00 18.5 23 Sur 44 Sudeste 0 -- -- 72
2017-10-18 13:00:00 17.5 13 Sudeste 32 Sudeste 0.2 -- -- 77
2017-10-18 12:00:00 17.7 15 Sudeste 33 Sur 0.4 -- -- 77
2017-10-18 11:00:00 16.3 22 Sur 44 Sudeste 1.2 -- -- 87
2017-10-18 10:00:00 16.9 22 Sudeste 40 Sudeste 0.2 -- -- 82
2017-10-18 09:00:00 16 5 Noroeste 17 Noroeste 0 -- -- 82
2017-10-18 08:00:00 15.6 5 Noroeste 20 Noroeste 0 -- -- 84
2017-10-18 07:00:00 16.6 6 Este 21 Sudeste 0 -- -- 76
2017-10-18 06:00:00 15.4 5 Noroeste 10 Noroeste 0 -- -- 87
2017-10-18 05:00:00 15.4 3 Oeste 10 Norte 0.2 -- -- 85
2017-10-18 04:00:00 15.5 4 Oeste 9 Oeste 0 -- -- 84
2017-10-18 03:00:00 16.1 3 Noroeste 28 Sur 0 -- -- 83
2017-10-18 02:00:00 16.6 18 Sur 49 Sudeste 0.2 -- -- 80
2017-10-18 01:00:00 17.7 24 Sur 41 Sudeste 0.2 -- -- 72
2017-10-18 00:00:00 18.3 12 Sur 19 Sur 0 -- -- 70
2017-10-17 23:00:00 19.2 4 Este 13 Sur 0 -- -- 61
2017-10-17 22:00:00 19.8 12 Sur 23 Sudoeste 0 -- -- 57
2017-10-17 21:00:00 19.9 6 Sur 18 Sur 0 -- -- 54
2017-10-17 20:00:00 21 15 Sur 30 Sur 0 -- -- 51
2017-10-17 19:00:00 21.5 12 Sudeste 24 Sur 0 -- -- 48
2017-10-17 18:00:00 22.4 18 Sur 37 Sur 0 -- -- 45
2017-10-17 17:00:00 22.7 20 Sur 39 Sudeste 0 -- -- 45
2017-10-17 16:00:00 23.3 23 Sur 43 Sur 0 -- -- 43
2017-10-17 15:00:00 24.2 23 Sur 38 Sur 0 -- -- 43
2017-10-17 14:00:00 23.7 21 Sur 34 Sur 0 -- -- 45
2017-10-17 13:00:00 22 18 Sur 30 Sur 0 -- -- 53
2017-10-17 12:00:00 18.1 6 Nordeste 16 Sur 0 -- -- 73
2017-10-17 11:00:00 15.1 3 Nordeste 5 Nordeste 0 -- -- 81
2017-10-17 10:00:00 11 2 Sudeste 5 Oeste 0 -- -- 93
2017-10-17 09:00:00 9.9 2 Sudoeste 6 Este 0 -- -- 95
2017-10-17 08:00:00 9.6 0 Calma 7 Este 0 -- -- 94
2017-10-17 07:00:00 10.1 0 Calma 5 Este 0 -- -- 92
2017-10-17 06:00:00 10.5 0 Calma 4 Sudeste 0 -- -- 92
2017-10-17 05:00:00 10.6 3 Sudeste 6 Sur 0 -- -- 90
2017-10-17 04:00:00 11.8 3 Sudoeste 8 Sudoeste 0 -- -- 87
2017-10-17 03:00:00 12.2 0 Calma 4 Nordeste 0 -- -- 85
2017-10-17 02:00:00 13.1 0 Calma 4 Sudoeste 0 -- -- 82
2017-10-17 01:00:00 13.9 3 Sur 8 Sudeste 0 -- -- 78
2017-10-17 00:00:00 13.8 4 Sudeste 8 Sudeste 0 -- -- 77
2017-10-16 23:00:00 15.5 0 Calma 6 Sur 0 -- -- 72
2017-10-16 22:00:00 16.4 6 Sudoeste 10 Sur 0 -- -- 68
2017-10-16 21:00:00 18.6 6 Sudeste 15 Sur 0 -- -- 63
2017-10-16 20:00:00 20.6 3 Sudeste 14 Sur 0 -- -- 57
2017-10-16 19:00:00 22.6 6 Sudoeste 19 Sudoeste 0 -- -- 51
2017-10-16 18:00:00 24.5 14 Sudoeste 24 Sur 0 -- -- 46
2017-10-16 17:00:00 26.1 17 Sudoeste 31 Sudoeste 0 -- -- 45
2017-10-16 16:00:00 26.2 17 Sudoeste 31 Sur 0 -- -- 47
2017-10-16 15:00:00 26.4 17 Sudoeste 27 Sur 0 -- -- 48
2017-10-16 14:00:00 25.3 14 Sudoeste 27 Sudoeste 0 -- -- 50
2017-10-16 13:00:00 23.1 7 Sudeste 23 Sur 0 -- -- 59
2017-10-16 12:00:00 20 7 Norte 12 Noroeste 0 -- -- 72
2017-10-16 11:00:00 16.7 2 Nordeste 5 Norte 0 -- -- 82
2017-10-16 10:00:00 14.1 2 Sudeste 5 Nordeste 0 -- -- 93
2017-10-16 09:00:00 12.2 3 Sur 6 Oeste 0 -- -- 94
2017-10-16 08:00:00 12.7 3 Oeste 6 Norte 0 -- -- 93
2017-10-16 07:00:00 13.3 2 Nordeste 17 Sur 0 -- -- 93
2017-10-16 06:00:00 13.5 6 Sur 12 Sur 0 -- -- 91
2017-10-16 05:00:00 14 2 Sur 6 Sudoeste 0 -- -- 92
2017-10-16 04:00:00 14.3 0 Calma 8 Sudeste 0 -- -- 90
2017-10-16 03:00:00 14.4 4 Oeste 8 Sur 0 -- -- 88
2017-10-16 02:00:00 14.8 4 Sur 10 Sudoeste 0 -- -- 86
2017-10-16 01:00:00 15.3 5 Oeste 8 Oeste 0 -- -- 85
2017-10-16 00:00:00 16.4 0 Calma 8 Este 0 -- -- 80
2017-10-15 23:00:00 18 2 Sur 8 Sur 0 -- -- 75
2017-10-15 22:00:00 19 2 Sur 11 Sudeste 0 -- -- 72
2017-10-15 21:00:00 20 8 Sudeste 25 Sudoeste 0 -- -- 69
2017-10-15 20:00:00 20.3 23 Sur 35 Sur 0 -- -- 68
2017-10-15 19:00:00 22 24 Sudoeste 35 Sur 0 -- -- 63
2017-10-15 18:00:00 23.7 21 Sudoeste 29 Sur 0 -- -- 58
2017-10-15 17:00:00 25.2 20 Sudoeste 33 Sudoeste 0 -- -- 55
2017-10-15 16:00:00 25.8 15 Sur 31 Sudoeste 0 -- -- 53
2017-10-15 15:00:00 24.7 18 Sur 32 Sur 0 -- -- 57
2017-10-15 14:00:00 23.7 18 Sudoeste 30 Sudoeste 0 -- -- 60
2017-10-15 13:00:00 20.6 3 Nordeste 9 Noroeste 0 -- -- 71
2017-10-15 12:00:00 17.7 3 Nordeste 6 Nordeste 0 -- -- 79
2017-10-15 11:00:00 15.3 2 Norte 4 Nordeste 0 -- -- 87
2017-10-15 10:00:00 13.2 0 Calma 4 Este 0 -- -- 93
2017-10-15 09:00:00 11.7 0 Calma 5 Sudoeste 0 -- -- 95
2017-10-15 08:00:00 12 0 Calma 4 Sudoeste 0 -- -- 94
2017-10-15 07:00:00 12.5 2 Nordeste 6 Sudeste 0 -- -- 92
2017-10-15 06:00:00 13.3 0 Calma 5 Sudeste 0 -- -- 94
2017-10-15 05:00:00 13.6 0 Calma 5 Nordeste 0 -- -- 91
2017-10-15 04:00:00 14.4 3 Este 6 Sur 0 -- -- 89
2017-10-15 03:00:00 15.2 3 Sudeste 6 Noroeste 0 -- -- 86
2017-10-15 02:00:00 15.6 3 Noroeste 7 Sudoeste 0 -- -- 84
2017-10-15 01:00:00 16.9 5 Sur 8 Sudeste 0 -- -- 79
2017-10-15 00:00:00 18 4 Este 15 Sur 0 -- -- 77
2017-10-14 23:00:00 19.4 4 Sur 10 Sudeste 0 -- -- 73
2017-10-14 22:00:00 19.8 6 Sudeste 20 Este 0 -- -- 69
2017-10-14 21:00:00 20.8 6 Sudeste 21 Sur 0 -- -- 66
2017-10-14 20:00:00 21.9 4 Oeste 21 Sur 0 -- -- 60
2017-10-14 19:00:00 23.5 16 Sur 24 Sur 0 -- -- 55
2017-10-14 18:00:00 25.3 15 Sur 27 Sudoeste 0 -- -- 52
2017-10-14 17:00:00 26.5 19 Sur 31 Sudoeste 0 -- -- 49
2017-10-14 16:00:00 26.7 17 Sudoeste 32 Sudoeste 0 -- -- 50
2017-10-14 15:00:00 26.1 18 Sudoeste 32 Sur 0 -- -- 50
2017-10-14 14:00:00 23 3 Nordeste 9 Nordeste 0 -- -- 60
2017-10-14 13:00:00 20.4 5 Nordeste 9 Nordeste 0 -- -- 66
2017-10-14 12:00:00 17.7 3 Nordeste 6 Este 0 -- -- 66
2017-10-14 11:00:00 14.7 3 Nordeste 5 Nordeste 0 -- -- 75
2017-10-14 10:00:00 12.5 0 Calma 2 Nordeste 0 -- -- 83
2017-10-14 09:00:00 10.2 2 Oeste 4 Este 0 -- -- 86
2017-10-14 08:00:00 10.2 2 Sudeste 4 Sudeste 0 -- -- 89
2017-10-14 07:00:00 11 0 Calma 6 Sudeste 0 -- -- 84
2017-10-14 06:00:00 11.6 3 Sudeste 8 Sudoeste 0 -- -- 83
2017-10-14 05:00:00 12.1 0 Calma 5 Sudeste 0 -- -- 82
2017-10-14 04:00:00 13 0 Calma 7 Sudeste 0 -- -- 79
2017-10-14 03:00:00 13.7 0 Calma 9 Sur 0 -- -- 78
2017-10-14 02:00:00 14 0 Calma 5 Sudeste 0 -- -- 77
2017-10-14 01:00:00 14.9 2 Sudoeste 6 Sur 0 -- -- 74
2017-10-14 00:00:00 15.3 3 Oeste 8 Nordeste 0 -- -- 70
2017-10-13 23:00:00 17 2 Este 6 Sudoeste 0 -- -- 66
2017-10-13 22:00:00 17.9 0 Calma 4 Este 0 -- -- 63
2017-10-13 21:00:00 19.4 2 Este 13 Sur 0 -- -- 59
2017-10-13 20:00:00 21 10 Sur 15 Sur 0 -- -- 53
2017-10-13 19:00:00 23.7 7 Sur 10 Sur 0 -- -- 52
2017-10-13 18:00:00 26.1 0 Calma 5 Este 0 -- -- 46
2017-10-13 17:00:00 26.7 2 Nordeste 6 Nordeste 0 -- -- 45
2017-10-13 16:00:00 25.7 4 Nordeste 7 Este 0 -- -- 48
2017-10-13 15:00:00 24.5 4 Nordeste 8 Nordeste 0 -- -- 49
2017-10-13 14:00:00 22.5 3 Nordeste 6 Nordeste 0 -- -- 53
2017-10-13 13:00:00 19.7 2 Nordeste 6 Este 0 -- -- 49
2017-10-13 12:00:00 17 3 Norte 7 Nordeste 0 -- -- 58
2017-10-13 11:00:00 14.6 3 Norte 6 Nordeste 0 -- -- 64
2017-10-13 10:00:00 12.6 3 Sudeste 8 Este 0 -- -- 69
2017-10-13 09:00:00 10.7 0 Calma 6 Sudeste 0 -- -- 79
2017-10-13 08:00:00 10.7 5 Sudeste 8 Este 0 -- -- 74
2017-10-13 07:00:00 11.2 4 Este 6 Este 0 -- -- 74
2017-10-13 06:00:00 11 3 Sur 8 Sur 0 -- -- 75
2017-10-13 05:00:00 11.9 2 Sudoeste 8 Oeste 0 -- -- 73
2017-10-13 04:00:00 11.7 5 Sudoeste 7 Oeste 0 -- -- 81
2017-10-13 03:00:00 12.2 4 Sudoeste 6 Sudoeste 0 -- -- 81
2017-10-13 02:00:00 13.1 4 Oeste 8 Sudoeste 0 -- -- 80
2017-10-13 01:00:00 13.9 0 Calma 9 Sudoeste 0 -- -- 79
2017-10-13 00:00:00 14.7 5 Sudoeste 8 Sudoeste 0 -- -- 77
2017-10-12 23:00:00 16.1 0 Calma 5 Nordeste 0 -- -- 69
2017-10-12 22:00:00 17.3 0 Calma 10 Este 0 -- -- 66
2017-10-12 21:00:00 18.9 5 Este 9 Sudoeste 0 -- -- 60
2017-10-12 20:00:00 20.7 3 Oeste 19 Sur 0 -- -- 55
2017-10-12 19:00:00 22.7 12 Sur 17 Sur 0 -- -- 53
2017-10-12 18:00:00 25.8 7 Sur 10 Sur 0 -- -- 41
2017-10-12 17:00:00 27 5 Sudoeste 13 Sur 0 -- -- 37
2017-10-12 16:00:00 25.6 3 Norte 7 Nordeste 0 -- -- 51
2017-10-12 15:00:00 23.8 5 Norte 9 Nordeste 0 -- -- 56
2017-10-12 14:00:00 22.1 4 Norte 8 Noroeste 0 -- -- 55
2017-10-12 13:00:00 19 3 Noroeste 6 Noroeste 0 -- -- 55
2017-10-12 12:00:00 16.1 3 Norte 6 Noroeste 0 -- -- 62
2017-10-12 11:00:00 13.4 3 Nordeste 6 Nordeste 0 -- -- 70
2017-10-12 10:00:00 10.2 3 Este 6 Sudeste 0 -- -- 84
2017-10-12 09:00:00 8.4 0 Calma 3 Norte 0 -- -- 88
2017-10-12 08:00:00 8.2 0 Calma 5 Sudoeste 0 -- -- 88
2017-10-12 07:00:00 8.8 3 Sudoeste 4 Sudoeste 0 -- -- 84
2017-10-12 06:00:00 9.5 0 Calma 6 Sudeste 0 -- -- 86
2017-10-12 05:00:00 10 4 Sudeste 8 Sudeste 0 -- -- 81
2017-10-12 04:00:00 10.8 3 Sudeste 5 Sudeste 0 -- -- 79
2017-10-12 03:00:00 11.6 3 Este 9 Sudeste 0 -- -- 78
2017-10-12 02:00:00 12.2 0 Calma 6 Sudeste 0 -- -- 78
2017-10-12 01:00:00 12.9 2 Este 8 Sur 0 -- -- 77
2017-10-12 00:00:00 14.2 0 Calma 6 Sudoeste 0 -- -- 72
2017-10-11 23:00:00 15.1 5 Oeste 8 Sudoeste 0 -- -- 68
2017-10-11 22:00:00 16.9 0 Calma 5 Nordeste 0 -- -- 60
2017-10-11 21:00:00 18.3 3 Este 7 Sudeste 0 -- -- 55
2017-10-11 20:00:00 19.4 5 Sudoeste 14 Sur 0 -- -- 53
2017-10-11 19:00:00 22.1 7 Sudoeste 10 Sudoeste 0 -- -- 49
2017-10-11 18:00:00 25.2 4 Oeste 8 Oeste 0 -- -- 41
2017-10-11 17:00:00 26.2 3 Sur 15 Sudoeste 0 -- -- 39
2017-10-11 16:00:00 25.3 4 Sur 15 Sur 0 -- -- 41
2017-10-11 15:00:00 23.3 6 Este 10 Nordeste 0 -- -- 49
2017-10-11 14:00:00 21.2 3 Nordeste 8 Nordeste 0 -- -- 51
2017-10-11 13:00:00 18.6 3 Nordeste 5 Nordeste 0 -- -- 53
2017-10-11 12:00:00 15.3 3 Noroeste 6 Noroeste 0 -- -- 58
2017-10-11 11:00:00 12.6 3 Norte 5 Norte 0 -- -- 68
2017-10-11 10:00:00 9.7 0 Calma 3 Norte 0 -- -- 80
2017-10-11 09:00:00 7.9 0 Calma 6 Sudeste 0 -- -- 81
2017-10-11 08:00:00 8.4 2 Sudeste 7 Oeste 0 -- -- 78
2017-10-11 07:00:00 9.1 3 Sudoeste 7 Sur 0 -- -- 76
2017-10-11 06:00:00 8.8 4 Sudoeste 8 Oeste 0 -- -- 77
2017-10-11 05:00:00 9.4 4 Oeste 6 Oeste 0 -- -- 74
2017-10-11 04:00:00 9.7 3 Sudoeste 6 Sudoeste 0 -- -- 73
2017-10-11 03:00:00 10.9 2 Sudoeste 4 Sudoeste 0 -- -- 69
2017-10-11 02:00:00 11.1 0 Calma 5 Sudeste 0 -- -- 67
2017-10-11 01:00:00 12 2 Este 8 Sudoeste 0 -- -- 63
2017-10-11 00:00:00 12.9 5 Sudoeste 9 Sudoeste 0 -- -- 60
2017-10-10 23:00:00 14 5 Sudoeste 9 Sudoeste 0 -- -- 57
2017-10-10 22:00:00 15 6 Sudoeste 9 Sudoeste 0 -- -- 55
2017-10-10 21:00:00 17.1 2 Este 15 Sudoeste 0 -- -- 48
2017-10-10 20:00:00 18.6 3 Norte 12 Sudoeste 0 -- -- 43
2017-10-10 19:00:00 22.4 5 Sur 9 Nordeste 0 -- -- 40
2017-10-10 18:00:00 24.3 7 Nordeste 10 Este 0 -- -- 34
2017-10-10 17:00:00 25.1 4 Nordeste 9 Este 0 -- -- 35
2017-10-10 16:00:00 24.9 3 Este 9 Nordeste 0 -- -- 36
2017-10-10 15:00:00 23 5 Nordeste 9 Este 0 -- -- 40
2017-10-10 14:00:00 20.3 5 Nordeste 8 Nordeste 0 -- -- 44
2017-10-10 13:00:00 17.2 3 Nordeste 10 Nordeste 0 -- -- 53
2017-10-10 12:00:00 14.8 3 Nordeste 8 Nordeste 0 -- -- 60
2017-10-10 11:00:00 12.3 4 Este 10 Este 0 -- -- 67
2017-10-10 10:00:00 9.8 4 Este 6 Este 0 -- -- 80
2017-10-10 09:00:00 7.4 0 Calma 12 Sudeste 0 -- -- 87
2017-10-10 08:00:00 7.2 8 Sudeste 11 Sur 0 -- -- 86
2017-10-10 07:00:00 7.7 4 Sudeste 11 Este 0 -- -- 84
2017-10-10 06:00:00 8.6 8 Sudeste 10 Sudeste 0 -- -- 85
2017-10-10 05:00:00 9 4 Sudeste 8 Sudeste 0 -- -- 86
2017-10-10 04:00:00 9.8 6 Este 9 Este 0 -- -- 87
2017-10-10 03:00:00 9.9 0 Calma 4 Sudeste 0 -- -- 85
2017-10-10 02:00:00 11.5 0 Calma 5 Este 0 -- -- 80
2017-10-10 01:00:00 13 6 Sudeste 14 Este 0 -- -- 77
2017-10-10 00:00:00 14.1 6 Este 14 Este 0 -- -- 73
2017-10-09 23:00:00 14.8 4 Sudeste 8 Sudeste 0 -- -- 67
2017-10-09 22:00:00 16.4 4 Sur 12 Nordeste 0 -- -- 63
2017-10-09 21:00:00 17.9 6 Nordeste 15 Noroeste 0 -- -- 54
2017-10-09 20:00:00 19.7 8 Noroeste 19 Noroeste 0 -- -- 46
2017-10-09 19:00:00 22.1 12 Noroeste 21 Noroeste 0 -- -- 38
2017-10-09 18:00:00 24 13 Noroeste 21 Noroeste 0 -- -- 33
2017-10-09 17:00:00 25.4 10 Norte 22 Norte 0 -- -- 31
2017-10-09 16:00:00 25.4 3 Norte 10 Oeste 0 -- -- 36
2017-10-09 15:00:00 23.3 3 Este 8 Nordeste 0 -- -- 40
2017-10-09 14:00:00 21 5 Nordeste 11 Nordeste 0 -- -- 47
2017-10-09 13:00:00 18.3 5 Este 9 Nordeste 0 -- -- 54
2017-10-09 12:00:00 15.9 4 Nordeste 10 Nordeste 0 -- -- 56
2017-10-09 11:00:00 13.4 4 Norte 6 Nordeste 0 -- -- 62
2017-10-09 10:00:00 10.5 3 Noroeste 10 Este 0 -- -- 72
2017-10-09 09:00:00 8.9 9 Este 13 Este 0 -- -- 75
2017-10-09 08:00:00 7.5 4 Sudeste 9 Sudeste 0 -- -- 82
2017-10-09 07:00:00 7.6 2 Este 9 Sudeste 0 -- -- 81
2017-10-09 06:00:00 9.5 5 Este 12 Este 0 -- -- 74
2017-10-09 05:00:00 10.5 6 Este 13 Este 0 -- -- 71
2017-10-09 04:00:00 10.8 7 Sudeste 12 Este 0 -- -- 69
2017-10-09 03:00:00 11.3 8 Sudeste 13 Este 0 -- -- 67
2017-10-09 02:00:00 11.9 6 Sudeste 15 Sudeste 0 -- -- 65
2017-10-09 01:00:00 12.6 10 Este 16 Este 0 -- -- 63
2017-10-09 00:00:00 13.4 10 Sudeste 18 Sudeste 0 -- -- 60
2017-10-08 23:00:00 14.3 8 Este 15 Este 0 -- -- 55
2017-10-08 22:00:00 16 5 Este 28 Norte 0 -- -- 51
2017-10-08 21:00:00 17.4 13 Noroeste 36 Oeste 0 -- -- 47
2017-10-08 20:00:00 18.1 5 Este 12 Norte 0 -- -- 47
2017-10-08 19:00:00 21.2 5 Oeste 28 Noroeste 0 -- -- 39
2017-10-08 18:00:00 22.9 11 Noroeste 26 Noroeste 0 -- -- 33
2017-10-08 17:00:00 24.6 14 Noroeste 27 Noroeste 0 -- -- 31
2017-10-08 16:00:00 25.1 12 Norte 26 Noroeste 0 -- -- 30
2017-10-08 15:00:00 23.3 3 Nordeste 6 Nordeste 0 -- -- 37
2017-10-08 14:00:00 19.9 3 Nordeste 9 Nordeste 0 -- -- 48
2017-10-08 13:00:00 17.4 5 Nordeste 12 Este 0 -- -- 56
2017-10-08 12:00:00 14.4 5 Este 9 Nordeste 0 -- -- 68
2017-10-08 11:00:00 11.9 3 Nordeste 8 Nordeste 0 -- -- 75
2017-10-08 10:00:00 9.9 4 Nordeste 6 Este 0 -- -- 84
2017-10-08 09:00:00 7.5 3 Este 9 Este 0 -- -- 93
2017-10-08 08:00:00 6.5 3 Este 10 Sudeste 0 -- -- 91
2017-10-08 07:00:00 6.2 0 Calma 5 Este 0 -- -- 91
2017-10-08 06:00:00 7.2 0 Calma 3 Este 0 -- -- 91
2017-10-08 05:00:00 7.8 2 Este 5 Sudeste 0 -- -- 90
2017-10-08 04:00:00 8.1 4 Sur 5 Sudeste 0 -- -- 88
2017-10-08 03:00:00 8.6 2 Nordeste 5 Sur 0 -- -- 84
2017-10-08 02:00:00 9.8 4 Sur 7 Sudoeste 0 -- -- 80
2017-10-08 01:00:00 10.1 3 Sudoeste 5 Oeste 0 -- -- 77
2017-10-08 00:00:00 11.4 5 Sudoeste 9 Sudoeste 0 -- -- 72
2017-10-07 23:00:00 13 3 Sur 10 Este 0 -- -- 64
2017-10-07 22:00:00 13.8 3 Sudeste 7 Sur 0 -- -- 63
2017-10-07 21:00:00 16.3 3 Este 14 Oeste 0 -- -- 55
2017-10-07 20:00:00 17.2 11 Sur 19 Sur 0 -- -- 53
2017-10-07 19:00:00 19.9 12 Sur 17 Sur 0 -- -- 47
2017-10-07 18:00:00 22.3 11 Sudoeste 18 Sudoeste 0 -- -- 42
2017-10-07 17:00:00 23.2 0 Calma 11 Noroeste 0 -- -- 35
2017-10-07 16:00:00 22.2 4 Noroeste 12 Noroeste 0 -- -- 39
2017-10-07 15:00:00 20.9 6 Norte 11 Noroeste 0 -- -- 38
2017-10-07 14:00:00 19.5 5 Noroeste 10 Noroeste 0 -- -- 36
2017-10-07 13:00:00 17.3 4 Este 12 Este 0 -- -- 42
2017-10-07 12:00:00 15.7 5 Este 12 Nordeste 0 -- -- 50
2017-10-07 11:00:00 13.6 7 Este 12 Sudeste 0 -- -- 59
2017-10-07 10:00:00 10.3 4 Este 11 Este 0 -- -- 73
2017-10-07 09:00:00 8.9 4 Este 10 Este 0 -- -- 78
2017-10-07 08:00:00 9.2 7 Sudeste 17 Este 0 -- -- 75
2017-10-07 07:00:00 9.9 10 Este 17 Este 0 -- -- 72
2017-10-07 06:00:00 10.2 8 Este 12 Nordeste 0 -- -- 69
2017-10-07 05:00:00 10.8 6 Este 14 Este 0 -- -- 66
2017-10-07 04:00:00 11.5 5 Este 34 Norte 0 -- -- 67
2017-10-07 03:00:00 12 15 Norte 27 Norte 0 -- -- 66
2017-10-07 02:00:00 12.1 10 Sudeste 30 Noroeste 0 -- -- 68
2017-10-07 01:00:00 11.6 10 Oeste 18 Noroeste 0 -- -- 72
2017-10-07 00:00:00 11.9 10 Sudoeste 22 Oeste 0 -- -- 71
2017-10-06 23:00:00 12.7 10 Sudoeste 24 Norte 0 -- -- 71
2017-10-06 22:00:00 13.5 4 Norte 22 Noroeste 0 -- -- 70
2017-10-06 21:00:00 14 15 Noroeste 30 Noroeste 0 -- -- 68
2017-10-06 20:00:00 15.3 16 Noroeste 40 Noroeste 0 -- -- 62
2017-10-06 19:00:00 17.3 18 Norte 45 Noroeste 0 -- -- 58
2017-10-06 18:00:00 18.5 24 Norte 49 Norte 0 -- -- 55
2017-10-06 17:00:00 19.6 22 Norte 48 Noroeste 0 -- -- 54
2017-10-06 16:00:00 20.7 20 Norte 42 Norte 0 -- -- 56
2017-10-06 15:00:00 21 17 Norte 42 Norte 0 -- -- 58
2017-10-06 14:00:00 20.2 21 Norte 38 Noroeste 0 -- -- 61
2017-10-06 13:00:00 19.5 20 Noroeste 37 Norte 0 -- -- 64
2017-10-06 12:00:00 19.5 14 Norte 36 Norte 0 -- -- 63
2017-10-06 11:00:00 17.7 17 Noroeste 33 Noroeste 0 -- -- 67
2017-10-06 10:00:00 16.1 21 Noroeste 40 Noroeste 0 -- -- 71
2017-10-06 09:00:00 14.7 17 Noroeste 30 Noroeste 0 -- -- 73
2017-10-06 08:00:00 13.5 12 Noroeste 36 Noroeste 0 -- -- 74
2017-10-06 07:00:00 13.8 14 Norte 27 Norte 0 -- -- 71
2017-10-06 06:00:00 14.3 15 Norte 37 Nordeste 0 -- -- 68
2017-10-06 05:00:00 14.8 5 Noroeste 26 Oeste 0 -- -- 66
2017-10-06 04:00:00 15.5 10 Norte 41 Norte 0 -- -- 68
2017-10-06 03:00:00 15.7 13 Norte 24 Noroeste 0 -- -- 70
2017-10-06 02:00:00 16.2 6 Sudoeste 15 Oeste 0 -- -- 68
2017-10-06 01:00:00 16.9 12 Noroeste 30 Noroeste 0 -- -- 66
2017-10-06 00:00:00 17.7 10 Noroeste 45 Norte 0 -- -- 66
2017-10-05 23:00:00 18.3 24 Norte 42 Norte 0 -- -- 66
2017-10-05 22:00:00 18.1 11 Norte 23 Oeste 0 -- -- 69
2017-10-05 21:00:00 18.6 12 Noroeste 30 Noroeste 0 -- -- 67
2017-10-05 20:00:00 19.5 9 Norte 31 Norte 0 -- -- 65
2017-10-05 19:00:00 21 12 Noroeste 24 Noroeste 0 -- -- 65
2017-10-05 18:00:00 22.5 14 Noroeste 29 Noroeste 0 -- -- 60
2017-10-05 17:00:00 24.7 12 Noroeste 31 Noroeste 0 -- -- 56
2017-10-05 16:00:00 25.4 15 Norte 31 Noroeste 0 -- -- 55
2017-10-05 15:00:00 26.3 4 Norte 10 Este 0 -- -- 50
2017-10-05 14:00:00 24.7 5 Nordeste 8 Nordeste 0 -- -- 55
2017-10-05 13:00:00 21.7 3 Este 8 Este 0 -- -- 59
2017-10-05 12:00:00 19.3 4 Nordeste 10 Nordeste 0 -- -- 66
2017-10-05 11:00:00 17.3 4 Este 8 Este 0 -- -- 70
2017-10-05 10:00:00 14.7 5 Sudeste 9 Sudeste 0 -- -- 79
2017-10-05 09:00:00 12.4 0 Calma 4 Sudoeste 0 -- -- 88
2017-10-05 08:00:00 11.5 4 Este 6 Sudeste 0 -- -- 92
2017-10-05 07:00:00 11.8 2 Sudoeste 6 Sudeste 0 -- -- 89
2017-10-05 06:00:00 12.6 5 Sudeste 8 Sudeste 0 -- -- 87
2017-10-05 05:00:00 12.9 2 Sur 10 Sur 0 -- -- 86
2017-10-05 04:00:00 13.9 4 Sur 9 Sur 0 -- -- 83
2017-10-05 03:00:00 14.4 3 Sudeste 6 Sudeste 0 -- -- 81
2017-10-05 02:00:00 15.1 0 Calma 4 Sur 0 -- -- 80
2017-10-05 01:00:00 15.8 0 Calma 4 Este 0 -- -- 79
2017-10-05 00:00:00 16.8 3 Sudoeste 6 Sudeste 0 -- -- 75
2017-10-04 23:00:00 18 0 Calma 6 Noroeste 0 -- -- 71
2017-10-04 22:00:00 18.9 2 Este 6 Sur 0 -- -- 68
2017-10-04 21:00:00 19.7 3 Este 15 Sur 0 -- -- 65
2017-10-04 20:00:00 21.2 15 Sur 18 Sur 0 -- -- 58
2017-10-04 19:00:00 24.6 4 Sudoeste 7 Sudoeste 0 -- -- 51
2017-10-04 18:00:00 25.9 3 Sudeste 8 Nordeste 0 -- -- 54
2017-10-04 17:00:00 26 4 Nordeste 15 Sudoeste 0 -- -- 55
2017-10-04 16:00:00 26.1 5 Este 19 Sudoeste 0 -- -- 57
2017-10-04 15:00:00 25.3 6 Oeste 14 Sudeste 0 -- -- 57
2017-10-04 14:00:00 23 5 Nordeste 11 Nordeste 0 -- -- 65
2017-10-04 13:00:00 21.1 4 Noroeste 8 Oeste 0 -- -- 67
2017-10-04 12:00:00 19.3 4 Noroeste 7 Oeste 0 -- -- 70
2017-10-04 11:00:00 16.7 3 Nordeste 8 Nordeste 0 -- -- 79
2017-10-04 10:00:00 14.4 0 Calma 5 Nordeste 0 -- -- 89
2017-10-04 09:00:00 12.6 3 Este 8 Sur 0 -- -- 93
2017-10-04 08:00:00 11.9 7 Sudoeste 10 Sudoeste 0 -- -- 94
2017-10-04 07:00:00 12.2 3 Sudoeste 12 Sur 0 -- -- 93
2017-10-04 06:00:00 12.7 5 Sudeste 7 Sur 0 -- -- 91
2017-10-04 05:00:00 13.7 4 Este 13 Este 0 -- -- 88
2017-10-04 04:00:00 14.8 4 Este 13 Sudeste 0 -- -- 87
2017-10-04 03:00:00 14.7 2 Nordeste 13 Sudeste 0 -- -- 87
2017-10-04 02:00:00 14.3 5 Sur 8 Sur 0 -- -- 88
2017-10-04 01:00:00 15 7 Sudoeste 11 Sudoeste 0 -- -- 85
2017-10-04 00:00:00 17.1 0 Calma 13 Sudeste 0 -- -- 78
2017-10-03 23:00:00 16.9 9 Sur 12 Sur 0 -- -- 79
2017-10-03 22:00:00 18.7 4 Noroeste 13 Nordeste 0 -- -- 73
2017-10-03 21:00:00 19.5 4 Norte 17 Norte 0 -- -- 70
2017-10-03 20:00:00 20.7 7 Noroeste 28 Noroeste 0 -- -- 65
2017-10-03 19:00:00 22.7 14 Norte 31 Norte 0 -- -- 58
2017-10-03 18:00:00 24 17 Noroeste 35 Noroeste 0 -- -- 53
2017-10-03 17:00:00 24.9 15 Norte 36 Noroeste 0 -- -- 49
2017-10-03 16:00:00 24.6 20 Norte 45 Noroeste 0 -- -- 49
2017-10-03 15:00:00 25.1 19 Noroeste 33 Noroeste 0 -- -- 48
2017-10-03 14:00:00 24.9 13 Norte 27 Noroeste 0 -- -- 51
2017-10-03 13:00:00 23.4 5 Oeste 11 Noroeste 0 -- -- 56
2017-10-03 12:00:00 19.6 2 Nordeste 8 Este 0 -- -- 73
2017-10-03 11:00:00 16.2 2 Nordeste 5 Nordeste 0 -- -- 91
2017-10-03 10:00:00 13.6 2 Sur 6 Sudeste 0 -- -- 97
2017-10-03 09:00:00 12.8 0 Calma 8 Este 0 -- -- 97
2017-10-03 08:00:00 12.1 4 Sur 6 Sudeste 0 -- -- 95
2017-10-03 07:00:00 12.6 2 Sudoeste 6 Sur 0 -- -- 94
2017-10-03 06:00:00 13.3 4 Sudeste 6 Sudeste 0 -- -- 95
2017-10-03 05:00:00 13.7 0 Calma 4 Sudeste 0 -- -- 91
2017-10-03 04:00:00 14.6 0 Calma 5 Este 0 -- -- 91
2017-10-03 03:00:00 15.6 4 Este 10 Este 0 -- -- 88
2017-10-03 02:00:00 16.8 8 Sudeste 14 Este 0 -- -- 85
2017-10-03 01:00:00 17.1 8 Sudeste 16 Este 0 -- -- 84
2017-10-03 00:00:00 17.5 7 Este 12 Sudeste 0 -- -- 83
2017-10-02 23:00:00 18.6 2 Este 9 Noroeste 0 -- -- 78
2017-10-02 22:00:00 19 3 Este 16 Norte 0 -- -- 77
2017-10-02 21:00:00 19.7 8 Norte 23 Nordeste 0 -- -- 75
2017-10-02 20:00:00 20.5 8 Norte 23 Norte 0 -- -- 73
2017-10-02 19:00:00 22.4 10 Norte 32 Nordeste 0 -- -- 68
2017-10-02 18:00:00 23.6 13 Norte 39 Norte 0 -- -- 63
2017-10-02 17:00:00 24.3 19 Norte 35 Norte 0 -- -- 60
2017-10-02 16:00:00 23.5 15 Norte 32 Noroeste 0 -- -- 65
2017-10-02 15:00:00 23.9 17 Norte 34 Noroeste 0 -- -- 64
2017-10-02 14:00:00 23.6 17 Norte 32 Noroeste 0 -- -- 66
2017-10-02 13:00:00 22.5 17 Noroeste 32 Noroeste 0 -- -- 67
2017-10-02 12:00:00 22.2 15 Noroeste 26 Noroeste 0 -- -- 69
2017-10-02 11:00:00 21.3 13 Noroeste 22 Noroeste 0 -- -- 70
2017-10-02 10:00:00 18.9 9 Noroeste 17 Norte 0 -- -- 78
2017-10-02 09:00:00 17.9 4 Norte 9 Sudeste 0 -- -- 81
2017-10-02 08:00:00 17.5 5 Noroeste 12 Noroeste 0 -- -- 82
2017-10-02 07:00:00 17.2 6 Noroeste 14 Noroeste 0 -- -- 83
2017-10-02 06:00:00 17.1 5 Noroeste 13 Noroeste 0 -- -- 83
2017-10-02 05:00:00 17.2 4 Noroeste 18 Noroeste 0 -- -- 82
2017-10-02 04:00:00 17.6 9 Noroeste 22 Noroeste 0 -- -- 79
2017-10-02 03:00:00 17.6 6 Norte 14 Nordeste 0 -- -- 78
2017-10-02 02:00:00 17.4 7 Norte 17 Norte 0 -- -- 80
2017-10-02 01:00:00 17.5 7 Norte 22 Norte 0 -- -- 80
2017-10-02 00:00:00 17.7 7 Norte 24 Norte 0 -- -- 80
2017-10-01 23:00:00 18 9 Norte 18 Norte 0 -- -- 79
2017-10-01 22:00:00 18.2 8 Norte 16 Noroeste 0 -- -- 80
2017-10-01 21:00:00 18.1 9 Noroeste 19 Noroeste 0 -- -- 81
2017-10-01 20:00:00 18 11 Noroeste 20 Noroeste 0 -- -- 81
2017-10-01 19:00:00 18.9 6 Norte 17 Noroeste 0 -- -- 78
2017-10-01 18:00:00 19.6 9 Noroeste 22 Norte 0 -- -- 75
2017-10-01 17:00:00 19.7 16 Noroeste 28 Noroeste 0 -- -- 74
2017-10-01 16:00:00 19.5 4 Norte 23 Noroeste 0 -- -- 75
2017-10-01 15:00:00 19.9 11 Noroeste 22 Oeste 0 -- -- 74
2017-10-01 14:00:00 20.4 13 Norte 24 Noroeste 0 -- -- 69
2017-10-01 13:00:00 19.1 14 Norte 22 Noroeste 0 -- -- 74
2017-10-01 12:00:00 16.3 9 Noroeste 21 Noroeste 0.2 -- -- 84
2017-10-01 11:00:00 16 11 Noroeste 22 Noroeste 0 -- -- 79
2017-10-01 10:00:00 15.5 7 Norte 17 Noroeste 0 -- -- 72
2017-10-01 09:00:00 14 3 Norte 14 Oeste 0 -- -- 79
2017-10-01 08:00:00 13.8 2 Noroeste 8 Noroeste 0 -- -- 75
2017-10-01 07:00:00 13.5 3 Nordeste 6 Noroeste 0 -- -- 81
2017-10-01 06:00:00 13.3 3 Este 6 Nordeste 0 -- -- 85
2017-10-01 05:00:00 13.4 2 Sudoeste 5 Sur 0 -- -- 83
2017-10-01 04:00:00 13.8 0 Calma 6 Sudoeste 0 -- -- 80
2017-10-01 03:00:00 13.5 4 Sudoeste 9 Sur 0 -- -- 83
2017-10-01 02:00:00 13.5 6 Sudeste 8 Sudeste 0 -- -- 85
2017-10-01 01:00:00 14.6 6 Nordeste 10 Nordeste 0 -- -- 80
2017-10-01 00:00:00 15.2 8 Noroeste 13 Norte 0 -- -- 76
2017-09-30 23:00:00 15.4 3 Este 7 Este 0 -- -- 76
2017-09-30 22:00:00 16.3 5 Noroeste 27 Norte 0 -- -- 72
2017-09-30 21:00:00 16.3 4 Sudeste 12 Oeste 0 -- -- 76
2017-09-30 20:00:00 17.1 8 Noroeste 18 Noroeste 0 -- -- 74
2017-09-30 19:00:00 18.4 4 Norte 17 Norte 0 -- -- 74
2017-09-30 18:00:00 19.5 9 Norte 15 Nordeste 0 -- -- 74
2017-09-30 17:00:00 19.2 7 Nordeste 13 Nordeste 0 -- -- 78
2017-09-30 16:00:00 18.4 8 Norte 22 Noroeste 0 -- -- 81
2017-09-30 15:00:00 19 4 Nordeste 11 Este 0 -- -- 83
2017-09-30 14:00:00 17.5 2 Sudoeste 9 Noroeste 0 -- -- 86
2017-09-30 13:00:00 17 4 Norte 17 Sudeste 0.2 -- -- 92
2017-09-30 12:00:00 15.6 4 Sudeste 12 Sudeste 0.4 -- -- 92
2017-09-30 11:00:00 15.1 7 Este 12 Este 0.2 -- -- 94
2017-09-30 10:00:00 14.6 4 Sudeste 8 Este 0.8 -- -- 95
2017-09-30 09:00:00 14.5 2 Sudoeste 10 Sudeste 0.6 -- -- 93
2017-09-30 08:00:00 14.5 2 Norte 11 Sudeste 0 -- -- 90
2017-09-30 07:00:00 14.7 5 Sur 8 Sur 0 -- -- 89
2017-09-30 06:00:00 14.6 3 Este 6 Sudeste 0 -- -- 89
2017-09-30 05:00:00 14.9 2 Nordeste 9 Sudeste 0 -- -- 87
2017-09-30 04:00:00 15.3 6 Sudeste 11 Sudeste 0 -- -- 86
2017-09-30 03:00:00 15.7 5 Sur 9 Sudeste 0 -- -- 85
2017-09-30 02:00:00 16.8 0 Calma 13 Este 0 -- -- 81
2017-09-30 01:00:00 17.6 8 Sudeste 12 Este 0 -- -- 79
2017-09-30 00:00:00 18.1 9 Sudeste 12 Este 0 -- -- 78
2017-09-29 23:00:00 19.1 9 Sudeste 12 Sudeste 0 -- -- 75
2017-09-29 22:00:00 19.7 3 Este 10 Sudeste 0 -- -- 72
2017-09-29 21:00:00 21.4 5 Sudeste 13 Sur 0 -- -- 66
2017-09-29 20:00:00 22.4 9 Sur 13 Sur 0 -- -- 63
2017-09-29 19:00:00 24.7 8 Sudoeste 10 Sur 0 -- -- 58
2017-09-29 18:00:00 27 2 Norte 7 Este 0 -- -- 47
2017-09-29 17:00:00 27 4 Sudoeste 13 Sur 0 -- -- 49
2017-09-29 16:00:00 27 5 Sudoeste 16 Sudeste 0 -- -- 50
2017-09-29 15:00:00 26.2 6 Sur 17 Oeste 0 -- -- 53
2017-09-29 14:00:00 25 6 Noroeste 17 Sudoeste 0 -- -- 57
2017-09-29 13:00:00 22.3 5 Norte 10 Norte 0 -- -- 63
2017-09-29 12:00:00 19.6 3 Norte 7 Noroeste 0 -- -- 68
2017-09-29 11:00:00 17 3 Noroeste 7 Norte 0 -- -- 76
2017-09-29 10:00:00 15.4 3 Noroeste 5 Nordeste 0 -- -- 79
2017-09-29 09:00:00 14.2 3 Sudeste 5 Sudeste 0 -- -- 85
2017-09-29 08:00:00 12.4 4 Sudoeste 7 Sudoeste 0 -- -- 89
2017-09-29 07:00:00 12.9 5 Sudoeste 8 Sudoeste 0 -- -- 88
2017-09-29 06:00:00 13 3 Sudoeste 5 Oeste 0 -- -- 88
2017-09-29 05:00:00 13.5 2 Sudeste 6 Sudoeste 0 -- -- 87
2017-09-29 04:00:00 14 0 Calma 4 Sudeste 0 -- -- 85
2017-09-29 03:00:00 14.6 3 Este 5 Sudoeste 0 -- -- 83
2017-09-29 02:00:00 15.6 2 Sur 6 Este 0 -- -- 79
2017-09-29 01:00:00 16 3 Este 6 Este 0 -- -- 76
2017-09-29 00:00:00 16.9 0 Calma 12 Sur 0 -- -- 72
2017-09-28 23:00:00 18 4 Sudoeste 7 Sudoeste 0 -- -- 68
2017-09-28 22:00:00 19.4 0 Calma 5 Oeste 0 -- -- 63
2017-09-28 21:00:00 20.9 0 Calma 21 Sur 0 -- -- 59
2017-09-28 20:00:00 21.9 16 Sur 19 Sur 0 -- -- 56
2017-09-28 19:00:00 25.7 8 Sur 17 Sur 0 -- -- 46
2017-09-28 18:00:00 27.2 9 Sur 23 Sur 0 -- -- 42
2017-09-28 17:00:00 27.4 14 Sur 23 Sudoeste 0 -- -- 44
2017-09-28 16:00:00 26.6 8 Sur 21 Sur 0 -- -- 49
2017-09-28 15:00:00 25.1 5 Nordeste 14 Sudoeste 0 -- -- 58
2017-09-28 14:00:00 23.7 6 Nordeste 12 Nordeste 0 -- -- 60
2017-09-28 13:00:00 21.6 4 Nordeste 9 Norte 0 -- -- 66
2017-09-28 12:00:00 19.3 3 Este 8 Este 0 -- -- 69
2017-09-28 11:00:00 17.1 3 Nordeste 8 Nordeste 0 -- -- 72
2017-09-28 10:00:00 15.2 3 Nordeste 5 Nordeste 0 -- -- 79
2017-09-28 09:00:00 13.1 2 Este 6 Sur 0 -- -- 85
2017-09-28 08:00:00 12 5 Sudoeste 8 Sudoeste 0 -- -- 87
2017-09-28 07:00:00 12.4 5 Sudoeste 7 Sudoeste 0 -- -- 86
2017-09-28 06:00:00 12.6 5 Sudoeste 7 Sudoeste 0 -- -- 86
2017-09-28 05:00:00 12.8 4 Sudoeste 8 Sudoeste 0 -- -- 86
2017-09-28 04:00:00 13.3 4 Sudoeste 7 Sudoeste 0 -- -- 86
2017-09-28 03:00:00 13.9 2 Este 4 Sudeste 0 -- -- 84
2017-09-28 02:00:00 14.7 0 Calma 7 Sudeste 0 -- -- 81
2017-09-28 01:00:00 15.4 2 Este 4 Sudeste 0 -- -- 77
2017-09-28 00:00:00 16 0 Calma 4 Nordeste 0 -- -- 75
2017-09-27 23:00:00 16.3 0 Calma 8 Sudoeste 0 -- -- 74
2017-09-27 22:00:00 17.8 6 Sur 13 Sur 0 -- -- 69
2017-09-27 21:00:00 19.1 10 Sur 14 Sudoeste 0 -- -- 63
2017-09-27 20:00:00 20.8 12 Sur 16 Sur 0 -- -- 60
2017-09-27 19:00:00 24.9 7 Sudoeste 17 Sudoeste 0 -- -- 49
2017-09-27 18:00:00 25.7 10 Sudoeste 25 Sur 0 -- -- 47
2017-09-27 17:00:00 25.9 14 Sudoeste 22 Sur 0 -- -- 48
2017-09-27 16:00:00 25.8 13 Sudoeste 28 Sur 0 -- -- 50
2017-09-27 15:00:00 24.8 11 Sur 20 Sur 0 -- -- 52
2017-09-27 14:00:00 22.7 6 Nordeste 11 Este 0 -- -- 61
2017-09-27 13:00:00 20.2 4 Nordeste 8 Nordeste 0 -- -- 67
2017-09-27 12:00:00 17.7 4 Norte 8 Noroeste 0 -- -- 70
2017-09-27 11:00:00 15.9 3 Norte 7 Nordeste 0 -- -- 73
2017-09-27 10:00:00 13.9 4 Nordeste 5 Nordeste 0 -- -- 81
2017-09-27 09:00:00 11.5 3 Sur 6 Sudoeste 0 -- -- 90
2017-09-27 08:00:00 9 4 Sudoeste 6 Sudoeste 0 -- -- 92
2017-09-27 07:00:00 9.5 0 Calma 6 Sudoeste 0 -- -- 89
2017-09-27 06:00:00 10.2 0 Calma 7 Sudoeste 0 -- -- 88
2017-09-27 05:00:00 10.7 3 Sudoeste 7 Sudoeste 0 -- -- 87
2017-09-27 04:00:00 10.7 4 Sudoeste 6 Sudoeste 0 -- -- 89
2017-09-27 03:00:00 10.8 2 Nordeste 7 Sudoeste 0 -- -- 88
2017-09-27 02:00:00 11.6 2 Sudeste 8 Sur 0 -- -- 85
2017-09-27 01:00:00 12.1 5 Sudoeste 9 Oeste 0 -- -- 83
2017-09-27 00:00:00 13.7 2 Norte 9 Este 0 -- -- 76
2017-09-26 23:00:00 14.6 0 Calma 9 Sudeste 0 -- -- 73
2017-09-26 22:00:00 16 7 Sudeste 14 Sudeste 0 -- -- 66
2017-09-26 21:00:00 17.1 10 Sudeste 14 Sur 0 -- -- 63
2017-09-26 20:00:00 19.9 3 Este 12 Nordeste 0 -- -- 57
2017-09-26 19:00:00 22.4 5 Norte 12 Noroeste 0 -- -- 47
2017-09-26 18:00:00 23.2 5 Este 10 Este 0 -- -- 42
2017-09-26 17:00:00 23.5 6 Este 12 Nordeste 0 -- -- 41
2017-09-26 16:00:00 23.6 2 Norte 13 Norte 0 -- -- 42
2017-09-26 15:00:00 22.6 4 Este 10 Nordeste 0 -- -- 46
2017-09-26 14:00:00 21.9 4 Norte 9 Norte 0 -- -- 48
2017-09-26 13:00:00 20.5 3 Oeste 10 Nordeste 0 -- -- 51
2017-09-26 12:00:00 19.4 7 Este 15 Nordeste 0 -- -- 59
2017-09-26 11:00:00 17.9 8 Nordeste 16 Este 0 -- -- 63
2017-09-26 10:00:00 16.3 9 Este 14 Este 0 -- -- 69
2017-09-26 09:00:00 14.3 5 Sudeste 9 Este 0 -- -- 77
2017-09-26 08:00:00 13.2 2 Este 8 Noroeste 0 -- -- 78
2017-09-26 07:00:00 14 5 Norte 17 Nordeste 0 -- -- 75
2017-09-26 06:00:00 14 6 Noroeste 23 Noroeste 0 -- -- 78
2017-09-26 05:00:00 13.9 8 Noroeste 15 Noroeste 0 -- -- 79
2017-09-26 04:00:00 14.2 6 Noroeste 14 Noroeste 0 -- -- 80
2017-09-26 03:00:00 14.8 8 Noroeste 25 Noroeste 0 -- -- 79
2017-09-26 02:00:00 15.2 12 Noroeste 26 Norte 0 -- -- 77
2017-09-26 01:00:00 15.3 8 Norte 27 Noroeste 0 -- -- 76
2017-09-26 00:00:00 15.3 11 Noroeste 24 Noroeste 0 -- -- 79
2017-09-25 23:00:00 15.5 10 Noroeste 17 Noroeste 0 -- -- 77
2017-09-25 22:00:00 15.8 7 Noroeste 18 Noroeste 0 -- -- 77
2017-09-25 21:00:00 16.5 5 Noroeste 21 Este 0 -- -- 73
2017-09-25 20:00:00 17.2 8 Noroeste 32 Noroeste 0 -- -- 70
2017-09-25 19:00:00 18.3 10 Norte 33 Noroeste 0 -- -- 65
2017-09-25 18:00:00 18.9 16 Norte 42 Noroeste 0 -- -- 65
2017-09-25 17:00:00 21.5 14 Norte 39 Noroeste 0 -- -- 55
2017-09-25 16:00:00 21.5 13 Norte 35 Norte 0 -- -- 56
2017-09-25 15:00:00 21.6 18 Noroeste 35 Noroeste 0 -- -- 56
2017-09-25 14:00:00 21.1 18 Noroeste 34 Norte 0 -- -- 59
2017-09-25 13:00:00 21.1 15 Noroeste 32 Noroeste 0 -- -- 62
2017-09-25 12:00:00 21.4 13 Norte 23 Noroeste 0 -- -- 57
2017-09-25 11:00:00 20.7 10 Nordeste 17 Nordeste 0 -- -- 56
2017-09-25 10:00:00 18.8 8 Este 12 Este 0 -- -- 58
2017-09-25 09:00:00 16.5 5 Nordeste 15 Norte 0 -- -- 62
2017-09-25 08:00:00 16.2 7 Este 15 Este 0 -- -- 78
2017-09-25 07:00:00 16.7 7 Sudeste 13 Este 0 -- -- 82
2017-09-25 06:00:00 16.9 6 Sudeste 12 Este 0 -- -- 82
2017-09-25 05:00:00 17.3 5 Sudeste 24 Nordeste 0 -- -- 79
2017-09-25 04:00:00 17.6 8 Este 16 Sudeste 0 -- -- 80
2017-09-25 03:00:00 16.6 9 Sudeste 13 Sudeste 0 -- -- 74
2017-09-25 02:00:00 16.3 3 Oeste 8 Oeste 0 -- -- 77
2017-09-25 01:00:00 16.9 2 Norte 9 Sudoeste 0 -- -- 75
2017-09-25 00:00:00 17.3 5 Sudoeste 8 Sudoeste 0 -- -- 75
2017-09-24 23:00:00 18.2 4 Sudoeste 6 Este 0 -- -- 71
2017-09-24 22:00:00 19.4 3 Sudeste 5 Sudeste 0 -- -- 68
2017-09-24 21:00:00 20.8 4 Este 14 Sudoeste 0 -- -- 61
2017-09-24 20:00:00 23 9 Sur 12 Sur 0 -- -- 55
2017-09-24 19:00:00 27 3 Este 8 Sudeste 0 -- -- 43
2017-09-24 18:00:00 27.2 2 Sudeste 8 Nordeste 0 -- -- 40
2017-09-24 17:00:00 27.5 5 Nordeste 9 Nordeste 0 -- -- 49
2017-09-24 16:00:00 26.8 4 Nordeste 9 Nordeste 0 -- -- 52
2017-09-24 15:00:00 25.3 5 Nordeste 9 Este 0 -- -- 56
2017-09-24 14:00:00 23 4 Este 8 Nordeste 0 -- -- 61
2017-09-24 13:00:00 21.2 3 Nordeste 8 Nordeste 0 -- -- 64
2017-09-24 12:00:00 19 3 Norte 6 Nordeste 0 -- -- 72
2017-09-24 11:00:00 16.4 3 Noroeste 7 Noroeste 0 -- -- 79
2017-09-24 10:00:00 14.4 3 Noroeste 6 Noroeste 0 -- -- 84
2017-09-24 09:00:00 13 3 Noroeste 7 Sudoeste 0 -- -- 89
2017-09-24 08:00:00 11.6 6 Sudoeste 8 Oeste 0 -- -- 92
2017-09-24 07:00:00 12.1 4 Sudoeste 6 Sudoeste 0 -- -- 91
2017-09-24 06:00:00 12.5 3 Sur 9 Sudeste 0 -- -- 89
2017-09-24 05:00:00 13.4 3 Sudeste 10 Sudeste 0 -- -- 89
2017-09-24 04:00:00 13.4 3 Sudoeste 4 Sudoeste 0 -- -- 91
2017-09-24 03:00:00 13.7 2 Nordeste 6 Sudeste 0 -- -- 91
2017-09-24 02:00:00 14.3 2 Sur 8 Oeste 0 -- -- 90
2017-09-24 01:00:00 15 3 Oeste 6 Oeste 0 -- -- 87
2017-09-24 00:00:00 16.2 3 Oeste 5 Oeste 0 -- -- 80
2017-09-23 23:00:00 17.1 0 Calma 5 Sudeste 0 -- -- 79
2017-09-23 22:00:00 18.2 0 Calma 12 Sudoeste 0 -- -- 75
2017-09-23 21:00:00 19.4 3 Sur 18 Sur 0 -- -- 68
2017-09-23 20:00:00 20.8 13 Sur 15 Sur 0 -- -- 67
2017-09-23 19:00:00 24.4 0 Calma 7 Este 0 -- -- 55
2017-09-23 18:00:00 24.9 3 Nordeste 8 Nordeste 0 -- -- 55
2017-09-23 17:00:00 24.5 4 Este 13 Nordeste 0 -- -- 56
2017-09-23 16:00:00 23.9 6 Este 11 Este 0 -- -- 58
2017-09-23 15:00:00 22.7 5 Nordeste 11 Nordeste 0 -- -- 63
2017-09-23 14:00:00 20.8 6 Nordeste 10 Este 0 -- -- 68
2017-09-23 13:00:00 18.4 4 Nordeste 8 Este 0 -- -- 74
2017-09-23 12:00:00 16.2 4 Norte 7 Nordeste 0 -- -- 82
2017-09-23 11:00:00 13.4 3 Nordeste 6 Este 0 -- -- 96
2017-09-23 10:00:00 11.3 3 Oeste 6 Noroeste 0 -- -- 98
2017-09-23 09:00:00 11 3 Sudoeste 8 Oeste 0 -- -- 98
2017-09-23 08:00:00 10.5 3 Oeste 5 Noroeste 0 -- -- 97
2017-09-23 07:00:00 10.1 2 Noroeste 4 Oeste 0 -- -- 96
2017-09-23 06:00:00 10.1 0 Calma 3 Este 0 -- -- 95
2017-09-23 05:00:00 10.8 0 Calma 6 Sudoeste 0 -- -- 95
2017-09-23 04:00:00 11.2 0 Calma 7 Sudoeste 0 -- -- 95
2017-09-23 03:00:00 11.4 2 Sudeste 5 Sur 0 -- -- 94
2017-09-23 02:00:00 12 2 Sur 8 Sudoeste 0 -- -- 95
2017-09-23 01:00:00 12.1 6 Sudoeste 8 Sudoeste 0 -- -- 93
2017-09-23 00:00:00 12.7 4 Sudoeste 10 Sudoeste 0 -- -- 91